Time;durP1;ratioP1;P1;durP2;ratioP2;P2;SDS_P1;SDS_P2;PMS_P1;PMS_P2;Temp;Humidity;BMP_temperature;BMP_pressure;BME280_temperature;BME280_humidity;BME280_pressure;Samples;Min_cycle;Max_cycle;Signal;HPM_P1;HPM_P2
2021/04/09 00:02:15;;;;;;;6.20;5.53;;;5.30;99.90;;;;;;4976516;28;20232;-74
2021/04/09 00:04:40;;;;;;;9.20;6.10;;;5.30;99.90;;;;;;4977301;28;20472;-74
2021/04/09 00:07:06;;;;;;;7.30;5.03;;;5.30;99.90;;;;;;4975044;28;21009;-72
2021/04/09 00:09:32;;;;;;;5.63;5.10;;;5.20;99.90;;;;;;4975399;28;20209;-72
2021/04/09 00:11:58;;;;;;;5.80;5.03;;;5.20;99.90;;;;;;4977184;28;20497;-72
2021/04/09 00:14:24;;;;;;;6.17;5.57;;;5.10;99.90;;;;;;4977107;28;20448;-74
2021/04/09 00:16:50;;;;;;;6.73;5.50;;;5.10;99.90;;;;;;4979402;28;20445;-73
2021/04/09 00:19:20;;;;;;;7.37;5.60;;;5.10;99.90;;;;;;4973367;28;20210;-73
2021/04/09 00:21:46;;;;;;;7.17;5.73;;;5.10;99.90;;;;;;4972730;28;20229;-74
2021/04/09 00:24:12;;;;;;;9.23;4.93;;;5.10;99.90;;;;;;4977190;28;20540;-73
2021/04/09 00:26:39;;;;;;;5.90;5.40;;;5.10;99.90;;;;;;4979117;28;20269;-72
2021/04/09 00:29:05;;;;;;;7.60;5.20;;;5.10;99.90;;;;;;4982989;28;20852;-72
2021/04/09 00:31:31;;;;;;;7.73;5.70;;;5.20;99.90;;;;;;4981796;28;20552;-72
2021/04/09 00:33:58;;;;;;;7.03;5.17;;;5.30;99.90;;;;;;4982329;28;20429;-72
2021/04/09 00:36:23;;;;;;;7.80;5.47;;;5.20;99.90;;;;;;4978804;28;20443;-72
2021/04/09 00:38:49;;;;;;;6.60;6.00;;;5.20;99.90;;;;;;4975563;28;20856;-73
2021/04/09 00:41:16;;;;;;;5.90;5.37;;;5.30;99.90;;;;;;4980427;28;20200;-73
2021/04/09 00:43:43;;;;;;;6.47;5.50;;;5.30;99.90;;;;;;4979155;28;20449;-73
2021/04/09 00:46:09;;;;;;;6.73;5.17;;;5.30;99.90;;;;;;4980305;28;20453;-73
2021/04/09 00:48:35;;;;;;;7.27;5.57;;;5.30;99.90;;;;;;4975377;28;20444;-72
2021/04/09 00:51:00;;;;;;;8.00;5.70;;;5.40;99.90;;;;;;4984296;28;20280;-74
2021/04/09 00:53:27;;;;;;;7.40;5.20;;;5.40;99.90;;;;;;4981235;28;20575;-74
2021/04/09 00:55:54;;;;;;;5.93;5.40;;;5.30;99.90;;;;;;4981617;28;20802;-73
2021/04/09 00:58:20;;;;;;;5.93;5.33;;;5.30;99.90;;;;;;4985360;28;20475;-74
2021/04/09 01:00:46;;;;;;;5.73;4.97;;;5.30;99.90;;;;;;4979857;28;20989;-74
2021/04/09 01:03:11;;;;;;;9.40;5.70;;;5.20;99.90;;;;;;4983586;28;20466;-73
2021/04/09 01:05:38;;;;;;;6.10;5.00;;;5.10;99.90;;;;;;4980787;28;20675;-73
2021/04/09 01:08:06;;;;;;;6.10;5.50;;;5.00;99.90;;;;;;4985282;28;20579;-73
2021/04/09 01:10:32;;;;;;;7.83;6.57;;;4.90;99.90;;;;;;4983133;28;20831;-74
2021/04/09 01:12:57;;;;;;;6.20;5.60;;;4.80;99.90;;;;;;4984480;28;20528;-74
2021/04/09 01:15:24;;;;;;;7.33;6.03;;;4.70;99.90;;;;;;4984542;28;20217;-73
2021/04/09 01:18:20;;;;;;;9.20;6.43;;;4.60;99.90;;;;;;4980402;28;20740;-74
2021/04/09 01:21:09;;;;;;;7.33;5.83;;;4.60;99.90;;;;;;4984616;28;20461;-72
2021/04/09 01:24:03;;;;;;;11.03;7.00;;;4.50;99.90;;;;;;4981931;28;20859;-74
2021/04/09 01:26:58;;;;;;;9.80;6.10;;;4.40;99.90;;;;;;4979775;28;20468;-74
2021/04/09 01:30:02;;;;;;;7.00;6.27;;;4.30;99.90;;;;;;4990953;28;20452;-71
2021/04/09 01:32:30;;;;;;;7.03;5.70;;;4.20;99.90;;;;;;4983146;28;20521;-72
2021/04/09 01:35:05;;;;;;;6.80;5.83;;;4.20;99.90;;;;;;4979628;28;20861;-74
2021/04/09 01:37:38;;;;;;;9.20;5.60;;;4.20;99.90;;;;;;4982264;28;20471;-73
2021/04/09 01:40:17;;;;;;;6.23;5.50;;;4.20;99.90;;;;;;4985018;28;20491;-73
2021/04/09 01:42:46;;;;;;;5.73;5.23;;;4.10;99.90;;;;;;4985402;28;20456;-74
2021/04/09 01:45:13;;;;;;;6.80;4.97;;;4.20;99.90;;;;;;4987253;28;20491;-74
2021/04/09 01:47:41;;;;;;;10.90;6.27;;;4.20;99.90;;;;;;4990932;28;20475;-73
2021/04/09 01:50:11;;;;;;;6.70;5.40;;;4.20;99.90;;;;;;4984434;28;20457;-72
2021/04/09 01:52:36;;;;;;;5.70;5.13;;;4.20;99.90;;;;;;4983738;28;20811;-73
2021/04/09 01:55:06;;;;;;;6.00;5.20;;;4.30;99.90;;;;;;4982003;28;20468;-73
2021/04/09 01:57:33;;;;;;;6.17;5.57;;;4.30;99.90;;;;;;4983053;28;20197;-73
2021/04/09 02:00:00;;;;;;;11.07;5.37;;;4.30;99.90;;;;;;4984332;28;20939;-73
2021/04/09 02:02:27;;;;;;;6.60;5.03;;;4.30;99.90;;;;;;4976677;28;20523;-73
2021/04/09 02:04:56;;;;;;;6.40;5.80;;;4.30;99.90;;;;;;4982480;28;20887;-73
2021/04/09 02:07:22;;;;;;;5.87;5.27;;;4.30;99.90;;;;;;4982509;28;20488;-73
2021/04/09 02:09:49;;;;;;;6.27;5.67;;;4.30;99.90;;;;;;4984073;28;20487;-74
2021/04/09 02:12:16;;;;;;;6.40;5.63;;;4.30;99.90;;;;;;4986799;28;20585;-72
2021/04/09 02:14:43;;;;;;;8.97;5.20;;;4.30;99.90;;;;;;4981341;28;20509;-74
2021/04/09 02:17:13;;;;;;;7.50;6.20;;;4.30;99.90;;;;;;4982364;28;20984;-73
2021/04/09 02:19:42;;;;;;;8.17;5.90;;;4.40;99.90;;;;;;4976609;28;20500;-72
2021/04/09 02:22:09;;;;;;;5.93;5.33;;;4.40;99.90;;;;;;4980141;28;20574;-72
2021/04/09 02:24:35;;;;;;;6.50;5.90;;;4.40;99.90;;;;;;4977981;28;20445;-73
2021/04/09 02:27:01;;;;;;;8.23;6.30;;;4.40;99.90;;;;;;4982865;28;20455;-73
2021/04/09 02:29:27;;;;;;;6.57;5.97;;;4.40;99.90;;;;;;4980117;28;20190;-72
2021/04/09 02:31:53;;;;;;;7.97;5.80;;;4.40;99.90;;;;;;4976777;28;20493;-72
2021/04/09 02:34:19;;;;;;;7.70;6.10;;;4.40;99.90;;;;;;4977882;28;20451;-72
2021/04/09 02:36:45;;;;;;;6.80;5.80;;;4.40;99.90;;;;;;4981421;28;20471;-73
2021/04/09 02:39:14;;;;;;;5.93;5.43;;;4.40;99.90;;;;;;4980742;28;20492;-73
2021/04/09 02:42:04;;;;;;;6.03;5.43;;;4.40;99.90;;;;;;4978372;28;20588;-73
2021/04/09 02:44:30;;;;;;;6.03;5.37;;;4.40;99.90;;;;;;4984386;28;20490;-73
2021/04/09 02:47:07;;;;;;;6.70;5.60;;;4.40;99.90;;;;;;4979446;28;20453;-73
2021/04/09 02:49:42;;;;;;;5.40;5.00;;;4.40;99.90;;;;;;4978927;28;20476;-72
2021/04/09 02:52:18;;;;;;;5.97;5.37;;;4.40;99.90;;;;;;4982602;28;20468;-73
2021/04/09 02:54:50;;;;;;;5.97;5.47;;;4.40;99.90;;;;;;4979357;28;20529;-74
2021/04/09 02:57:16;;;;;;;7.83;5.63;;;4.40;99.90;;;;;;4978423;28;20462;-73
2021/04/09 02:59:43;;;;;;;6.93;6.23;;;4.40;99.90;;;;;;4979750;28;20547;-74
2021/04/09 03:02:09;;;;;;;7.90;6.37;;;4.40;99.90;;;;;;4976364;28;21090;-74
2021/04/09 03:04:35;;;;;;;6.80;6.10;;;4.30;99.90;;;;;;4981796;28;20511;-73
2021/04/09 03:07:02;;;;;;;8.53;5.93;;;4.30;99.90;;;;;;4981335;28;20453;-73
2021/04/09 03:09:27;;;;;;;12.33;6.10;;;4.20;99.90;;;;;;4978594;28;21211;-73
2021/04/09 03:11:53;;;;;;;6.30;5.70;;;4.20;99.90;;;;;;4982531;28;20456;-73
2021/04/09 03:14:19;;;;;;;7.93;6.27;;;4.20;99.90;;;;;;4978443;28;20194;-73
2021/04/09 03:16:54;;;;;;;6.97;6.10;;;4.10;99.90;;;;;;4984820;28;20281;-73
2021/04/09 03:19:20;;;;;;;8.00;5.80;;;4.10;99.90;;;;;;4978758;28;20879;-73
2021/04/09 03:21:46;;;;;;;7.03;6.07;;;4.10;99.90;;;;;;4983333;28;20475;-74
2021/04/09 03:24:11;;;;;;;6.33;5.50;;;4.00;99.90;;;;;;4981409;28;20206;-73
2021/04/09 03:26:37;;;;;;;8.93;6.57;;;4.00;99.90;;;;;;4980241;28;20213;-74
2021/04/09 03:29:02;;;;;;;10.20;6.50;;;4.10;99.90;;;;;;4983474;28;20303;-74
2021/04/09 03:31:28;;;;;;;6.90;5.60;;;4.00;99.90;;;;;;4981055;28;20229;-74
2021/04/09 03:33:54;;;;;;;6.13;5.30;;;4.00;99.90;;;;;;4980074;28;20208;-74
2021/04/09 03:36:19;;;;;;;6.50;5.90;;;4.00;99.90;;;;;;4982206;28;20202;-72
2021/04/09 03:38:45;;;;;;;7.03;6.10;;;4.00;99.90;;;;;;4984907;28;20217;-73
2021/04/09 03:41:11;;;;;;;8.13;6.07;;;3.90;99.90;;;;;;4978495;28;20940;-74
2021/04/09 03:43:37;;;;;;;8.53;5.73;;;3.90;99.90;;;;;;4978967;28;20189;-73
2021/04/09 03:46:02;;;;;;;8.87;6.30;;;3.90;99.90;;;;;;4986703;28;20755;-74
2021/04/09 03:48:28;;;;;;;6.27;5.63;;;3.90;99.90;;;;;;4976912;28;20197;-73
2021/04/09 03:50:53;;;;;;;5.43;4.93;;;3.90;99.90;;;;;;4980806;28;20222;-73
2021/04/09 03:53:19;;;;;;;6.80;6.10;;;3.90;99.90;;;;;;4979287;28;20208;-72
2021/04/09 03:55:45;;;;;;;6.00;5.43;;;3.90;99.90;;;;;;4977862;28;20266;-73
2021/04/09 03:58:10;;;;;;;7.03;6.17;;;4.00;99.90;;;;;;4982108;28;20236;-72
2021/04/09 04:00:36;;;;;;;8.63;6.43;;;4.00;99.90;;;;;;4981515;28;20205;-73
2021/04/09 04:03:02;;;;;;;7.10;5.80;;;4.00;99.90;;;;;;4985387;28;20178;-74
2021/04/09 04:05:28;;;;;;;6.73;6.13;;;4.00;99.90;;;;;;4982573;28;21864;-75
2021/04/09 04:07:53;;;;;;;6.83;6.13;;;4.00;99.90;;;;;;4982385;28;20466;-73
2021/04/09 04:10:19;;;;;;;7.47;6.00;;;4.00;99.90;;;;;;4981274;28;20194;-73
2021/04/09 04:12:44;;;;;;;6.50;5.90;;;3.90;99.90;;;;;;4984735;28;20230;-73
2021/04/09 04:15:11;;;;;;;6.93;6.23;;;3.90;99.90;;;;;;4980266;28;20281;-73
2021/04/09 04:17:36;;;;;;;6.83;6.07;;;3.80;99.90;;;;;;4981197;28;20190;-75
2021/04/09 04:20:03;;;;;;;6.33;5.73;;;3.90;99.90;;;;;;4983511;28;20459;-74
2021/04/09 04:22:29;;;;;;;8.93;6.43;;;3.90;99.90;;;;;;4982244;28;20189;-74
2021/04/09 04:24:54;;;;;;;6.70;6.03;;;3.80;99.90;;;;;;4983981;28;20471;-74
2021/04/09 04:27:20;;;;;;;6.27;5.60;;;3.90;99.90;;;;;;4983917;28;20235;-74
2021/04/09 04:29:46;;;;;;;6.63;6.03;;;3.90;99.90;;;;;;4981500;28;20819;-72
2021/04/09 04:32:11;;;;;;;9.50;7.23;;;3.90;99.90;;;;;;4984134;28;20506;-74
2021/04/09 04:34:37;;;;;;;7.83;6.70;;;3.90;99.90;;;;;;4982583;28;20189;-74
2021/04/09 04:37:03;;;;;;;7.37;6.03;;;3.90;99.90;;;;;;4978890;28;20289;-74
2021/04/09 04:39:29;;;;;;;11.83;6.63;;;3.80;99.90;;;;;;4983243;28;20210;-73
2021/04/09 04:41:54;;;;;;;6.90;6.20;;;3.70;99.90;;;;;;4985799;28;20468;-73
2021/04/09 04:44:20;;;;;;;7.03;5.63;;;3.70;99.90;;;;;;4976691;28;20197;-73
2021/04/09 04:46:46;;;;;;;7.83;6.10;;;3.60;99.90;;;;;;4984014;28;20632;-74
2021/04/09 04:49:11;;;;;;;5.47;5.07;;;3.70;99.90;;;;;;4984947;28;20683;-75
2021/04/09 04:51:37;;;;;;;8.23;6.03;;;3.70;99.90;;;;;;4980551;28;20484;-72
2021/04/09 04:54:03;;;;;;;6.20;5.60;;;3.70;99.90;;;;;;4981358;28;21040;-73
2021/04/09 04:56:29;;;;;;;6.20;5.53;;;3.70;99.90;;;;;;4982615;28;20202;-73
2021/04/09 04:58:55;;;;;;;8.57;5.30;;;3.70;99.90;;;;;;4980490;28;20638;-73
2021/04/09 05:01:20;;;;;;;10.40;5.80;;;3.70;99.90;;;;;;4981981;28;20468;-72
2021/04/09 05:03:46;;;;;;;8.67;6.03;;;3.70;99.90;;;;;;4983963;28;20194;-74
2021/04/09 05:06:12;;;;;;;6.63;5.93;;;3.80;99.90;;;;;;4981097;28;20190;-75
2021/04/09 05:08:37;;;;;;;9.73;5.40;;;3.80;99.90;;;;;;4980329;28;20190;-72
2021/04/09 05:11:03;;;;;;;9.93;6.07;;;3.80;99.90;;;;;;4983890;28;20225;-73
2021/04/09 05:13:29;;;;;;;7.63;6.10;;;3.90;99.90;;;;;;4979807;28;20205;-73
2021/04/09 05:15:54;;;;;;;10.77;6.00;;;3.90;99.90;;;;;;4980882;28;20225;-73
2021/04/09 05:18:20;;;;;;;7.73;6.90;;;3.90;99.90;;;;;;4983440;28;20573;-73
2021/04/09 05:20:45;;;;;;;7.27;6.10;;;4.00;99.90;;;;;;4979560;28;20218;-73
2021/04/09 05:23:11;;;;;;;9.53;5.73;;;4.00;99.90;;;;;;4984530;28;20221;-73
2021/04/09 05:25:37;;;;;;;12.60;7.50;;;4.00;99.90;;;;;;4986655;28;20202;-74
2021/04/09 05:28:03;;;;;;;5.87;5.27;;;4.00;99.90;;;;;;4979907;28;21245;-72
2021/04/09 05:30:29;;;;;;;6.00;5.40;;;4.10;99.90;;;;;;4980645;28;20217;-73
2021/04/09 05:32:54;;;;;;;7.70;6.33;;;4.10;99.90;;;;;;4984316;28;20455;-74
2021/04/09 05:35:22;;;;;;;7.40;5.50;;;4.10;99.90;;;;;;4980115;28;20197;-74
2021/04/09 05:37:47;;;;;;;8.00;6.07;;;4.20;99.90;;;;;;4978446;28;20221;-73
2021/04/09 05:40:14;;;;;;;6.23;5.60;;;4.20;99.90;;;;;;4984780;28;20534;-73
2021/04/09 05:42:40;;;;;;;8.40;5.80;;;4.30;99.90;;;;;;4981219;28;20201;-74
2021/04/09 05:45:06;;;;;;;8.40;5.90;;;4.30;99.90;;;;;;4979232;28;21179;-73
2021/04/09 05:47:32;;;;;;;7.77;6.80;;;4.40;99.90;;;;;;4983462;28;20214;-74
2021/04/09 05:49:57;;;;;;;10.63;6.00;;;4.40;99.90;;;;;;4982364;28;20492;-72
2021/04/09 05:52:23;;;;;;;5.67;5.07;;;4.50;99.90;;;;;;4980300;28;20226;-74
2021/04/09 05:54:48;;;;;;;10.50;6.63;;;4.50;99.90;;;;;;4980835;28;20207;-73
2021/04/09 05:57:14;;;;;;;8.60;5.67;;;4.70;99.90;;;;;;4980590;28;20220;-74
2021/04/09 05:59:40;;;;;;;6.37;5.87;;;4.70;99.90;;;;;;4978587;28;20221;-72
2021/04/09 06:02:05;;;;;;;6.60;6.00;;;4.80;99.90;;;;;;4983036;28;20202;-71
2021/04/09 06:04:31;;;;;;;6.23;5.30;;;4.80;99.90;;;;;;4973847;28;20821;-73
2021/04/09 06:06:56;;;;;;;7.63;6.03;;;4.90;99.90;;;;;;4971720;28;20198;-74
2021/04/09 06:09:22;;;;;;;6.03;5.40;;;5.00;99.90;;;;;;4970553;28;20310;-72
2021/04/09 06:11:48;;;;;;;6.13;5.50;;;5.10;99.90;;;;;;4974350;28;20755;-73
2021/04/09 06:14:17;;;;;;;15.77;5.87;;;5.20;99.90;;;;;;4973727;28;20653;-73
2021/04/09 06:16:43;;;;;;;11.60;5.63;;;5.20;99.90;;;;;;4973570;28;20453;-74
2021/04/09 06:19:09;;;;;;;9.17;6.40;;;5.30;99.90;;;;;;4971076;28;20472;-75
2021/04/09 06:21:35;;;;;;;8.83;5.80;;;5.40;99.90;;;;;;4976679;28;20218;-74
2021/04/09 06:24:02;;;;;;;6.87;6.37;;;5.60;99.90;;;;;;4976754;28;20194;-75
2021/04/09 06:26:28;;;;;;;5.63;5.23;;;5.70;99.90;;;;;;4975159;28;20469;-74
2021/04/09 06:28:55;;;;;;;6.93;5.73;;;5.70;99.90;;;;;;4972060;28;20476;-74
2021/04/09 06:31:21;;;;;;;7.67;5.63;;;5.80;99.90;;;;;;4973855;28;20480;-74
2021/04/09 06:33:46;;;;;;;15.90;5.43;;;5.90;99.90;;;;;;4976638;28;21312;-73
2021/04/09 06:36:12;;;;;;;6.10;5.57;;;6.00;99.90;;;;;;4975791;28;20480;-73
2021/04/09 06:38:38;;;;;;;13.03;6.20;;;6.00;99.90;;;;;;4974669;28;20283;-74
2021/04/09 06:41:03;;;;;;;12.93;6.03;;;6.10;99.90;;;;;;4971438;28;20715;-74
2021/04/09 06:43:30;;;;;;;9.00;6.60;;;6.20;99.90;;;;;;4980601;28;21159;-73
2021/04/09 06:45:56;;;;;;;7.47;6.67;;;6.30;99.90;;;;;;4969983;28;20817;-74
2021/04/09 06:48:21;;;;;;;5.97;5.47;;;6.40;99.90;;;;;;4975763;28;20460;-73
2021/04/09 06:50:47;;;;;;;8.10;5.97;;;6.50;99.90;;;;;;4973775;28;20214;-72
2021/04/09 06:53:13;;;;;;;6.93;6.23;;;6.60;99.90;;;;;;4972359;28;20200;-74
2021/04/09 06:55:46;;;;;;;6.40;5.80;;;6.70;99.90;;;;;;4977827;28;20189;-74
2021/04/09 06:58:15;;;;;;;6.50;6.00;;;6.80;99.90;;;;;;4971978;28;20507;-74
2021/04/09 07:00:42;;;;;;;6.80;5.80;;;6.90;99.90;;;;;;4987043;28;20491;-73
2021/04/09 07:03:09;;;;;;;8.47;6.73;;;7.00;99.90;;;;;;4977414;28;20918;-74
2021/04/09 07:05:38;;;;;;;7.27;6.67;;;7.10;99.90;;;;;;4972920;28;20540;-75
2021/04/09 07:08:04;;;;;;;8.90;6.37;;;7.20;99.90;;;;;;4972319;28;20452;-74
2021/04/09 07:10:31;;;;;;;9.37;6.30;;;7.30;99.90;;;;;;4970094;28;20469;-74
2021/04/09 07:13:07;;;;;;;6.57;5.97;;;7.40;99.90;;;;;;4973116;28;20441;-73
2021/04/09 07:15:44;;;;;;;7.50;6.10;;;7.50;99.90;;;;;;4974081;28;20766;-72
2021/04/09 07:18:11;;;;;;;6.43;5.97;;;7.60;99.90;;;;;;4975578;28;20469;-74
2021/04/09 07:20:38;;;;;;;6.30;5.80;;;7.70;99.90;;;;;;4970607;28;20558;-73
2021/04/09 07:23:06;;;;;;;7.53;6.80;;;7.80;99.90;;;;;;4975240;28;20455;-73
2021/04/09 07:25:35;;;;;;;9.90;6.40;;;7.90;99.90;;;;;;4971937;28;20441;-74
2021/04/09 07:28:22;;;;;;;6.70;6.10;;;8.00;99.90;;;;;;4973066;28;20444;-73
2021/04/09 07:30:54;;;;;;;7.70;7.00;;;8.10;99.90;;;;;;4971613;28;20470;-74
2021/04/09 07:33:22;;;;;;;8.40;6.60;;;8.30;99.90;;;;;;4976262;28;20437;-74
2021/04/09 07:35:56;;;;;;;7.90;6.50;;;8.30;99.90;;;;;;4960536;28;20448;-75
2021/04/09 07:38:25;;;;;;;7.40;6.70;;;8.40;99.90;;;;;;4973344;28;20867;-73
2021/04/09 07:41:00;;;;;;;8.00;7.20;;;8.40;99.90;;;;;;4972566;28;20459;-73
2021/04/09 07:43:31;;;;;;;9.17;6.30;;;8.50;99.90;;;;;;4975661;28;20510;-73
2021/04/09 07:45:58;;;;;;;7.03;6.33;;;8.50;99.90;;;;;;4978444;28;20853;-73
2021/04/09 07:48:38;;;;;;;6.90;6.20;;;8.60;99.90;;;;;;4975164;28;21369;-75
2021/04/09 07:51:06;;;;;;;9.70;7.13;;;8.60;99.90;;;;;;4976233;28;20495;-73
2021/04/09 07:53:32;;;;;;;10.67;6.60;;;8.70;99.90;;;;;;4972522;28;20460;-73
2021/04/09 07:56:06;;;;;;;7.27;6.53;;;8.70;99.90;;;;;;4971875;28;21169;-73
2021/04/09 07:58:32;;;;;;;7.77;6.80;;;8.80;99.90;;;;;;4973031;28;20344;-74
2021/04/09 08:00:58;;;;;;;9.60;7.20;;;8.90;99.90;;;;;;4972519;28;21402;-73
2021/04/09 08:03:39;;;;;;;7.27;6.67;;;9.00;99.90;;;;;;4971832;28;20451;-74
2021/04/09 08:06:09;;;;;;;7.80;7.10;;;9.20;99.90;;;;;;4968553;28;20716;-74
2021/04/09 08:08:36;;;;;;;13.53;7.30;;;9.30;99.90;;;;;;4974387;28;20528;-74
2021/04/09 08:11:21;;;;;;;7.00;6.50;;;9.40;99.90;;;;;;4971054;28;20469;-73
2021/04/09 08:14:06;;;;;;;7.07;6.50;;;9.60;99.90;;;;;;4972559;28;20521;-74
2021/04/09 08:16:54;;;;;;;7.27;6.63;;;9.70;99.90;;;;;;4972778;28;20488;-74
2021/04/09 08:19:26;;;;;;;7.80;7.00;;;9.80;99.90;;;;;;4972261;28;20452;-73
2021/04/09 08:21:55;;;;;;;7.27;6.60;;;9.90;99.90;;;;;;4976163;28;20498;-75
2021/04/09 08:24:23;;;;;;;6.80;6.30;;;9.90;99.90;;;;;;4972040;28;20433;-74
2021/04/09 08:26:50;;;;;;;7.63;6.93;;;10.10;99.90;;;;;;4971595;28;20813;-74
2021/04/09 08:29:17;;;;;;;8.43;7.13;;;10.30;99.30;;;;;;4970409;28;20459;-73
2021/04/09 08:31:43;;;;;;;10.40;8.80;;;10.50;98.70;;;;;;4975319;28;20479;-73
2021/04/09 08:34:12;;;;;;;7.80;7.10;;;10.60;98.20;;;;;;4971617;28;21102;-74
2021/04/09 08:36:38;;;;;;;7.77;5.47;;;10.80;96.10;;;;;;4973233;28;20445;-73
2021/04/09 08:39:05;;;;;;;6.70;5.87;;;10.80;93.80;;;;;;4973708;28;20467;-73
2021/04/09 08:41:31;;;;;;;7.23;5.90;;;10.70;90.70;;;;;;4970611;28;20469;-74
2021/04/09 08:43:57;;;;;;;6.13;5.63;;;10.60;90.10;;;;;;4971944;28;21730;-74
2021/04/09 08:46:23;;;;;;;6.10;5.50;;;10.50;90.30;;;;;;4976076;28;20465;-73
2021/04/09 08:48:49;;;;;;;7.20;6.50;;;10.50;91.20;;;;;;4983951;28;20206;-72
2021/04/09 08:51:20;;;;;;;6.60;6.00;;;10.30;91.00;;;;;;4981292;28;20213;-74
2021/04/09 08:53:45;;;;;;;6.00;5.60;;;10.40;91.50;;;;;;4976841;28;21021;-73
2021/04/09 08:56:12;;;;;;;6.30;5.30;;;10.70;91.60;;;;;;4975264;28;20448;-73
2021/04/09 08:58:47;;;;;;;10.53;6.60;;;11.10;91.30;;;;;;4975594;28;20229;-73
2021/04/09 09:01:14;;;;;;;7.57;6.77;;;11.90;91.10;;;;;;4974714;28;20471;-73
2021/04/09 09:03:40;;;;;;;7.30;6.00;;;12.50;88.70;;;;;;4976524;28;20437;-74
2021/04/09 09:06:08;;;;;;;7.50;6.27;;;12.60;83.70;;;;;;4976995;28;20441;-73
2021/04/09 09:08:43;;;;;;;8.83;7.57;;;12.90;83.20;;;;;;4978478;28;20547;-73
2021/04/09 09:11:09;;;;;;;7.60;6.50;;;13.20;81.40;;;;;;4973569;28;20567;-72
2021/04/09 09:13:46;;;;;;;7.10;6.47;;;13.60;77.10;;;;;;4974849;28;21136;-72
2021/04/09 09:16:21;;;;;;;6.50;5.90;;;14.30;76.90;;;;;;4981144;28;20436;-73
2021/04/09 09:18:52;;;;;;;6.23;5.73;;;15.00;72.80;;;;;;4978938;28;20500;-73
2021/04/09 09:21:20;;;;;;;7.37;6.57;;;16.30;70.10;;;;;;4981388;28;20480;-73
2021/04/09 09:23:57;;;;;;;10.60;5.93;;;17.30;60.10;;;;;;4977894;28;20439;-74
2021/04/09 09:26:35;;;;;;;8.37;6.60;;;18.00;55.30;;;;;;4979388;28;20516;-74
2021/04/09 09:29:29;;;;;;;7.90;7.00;;;18.70;50.90;;;;;;4978909;28;20440;-71
2021/04/09 09:32:07;;;;;;;7.63;6.27;;;19.70;49.20;;;;;;4980214;28;20548;-72
2021/04/09 09:34:38;;;;;;;7.30;6.60;;;19.70;45.30;;;;;;4979711;28;20525;-72
2021/04/09 09:37:13;;;;;;;8.03;6.50;;;19.50;44.60;;;;;;4974877;28;20430;-73
2021/04/09 09:39:58;;;;;;;7.00;6.30;;;18.90;43.50;;;;;;4973024;28;21053;-73
2021/04/09 09:42:25;;;;;;;6.60;6.10;;;18.20;44.20;;;;;;4980974;28;20461;-72
2021/04/09 09:44:52;;;;;;;6.77;6.20;;;17.90;43.80;;;;;;4982476;28;20433;-72
2021/04/09 09:47:19;;;;;;;7.23;6.70;;;18.20;43.90;;;;;;4980339;28;20468;-71
2021/04/09 09:50:04;;;;;;;7.17;6.53;;;18.70;43.60;;;;;;4974082;28;20458;-73
2021/04/09 09:52:55;;;;;;;6.70;6.17;;;19.20;43.20;;;;;;4980633;28;20530;-73
2021/04/09 09:55:36;;;;;;;6.70;6.10;;;19.10;42.20;;;;;;4976006;28;20445;-73
2021/04/09 09:58:17;;;;;;;5.60;5.20;;;18.30;42.20;;;;;;4976678;28;20473;-64
2021/04/09 10:00:51;;;;;;;6.63;6.13;;;17.90;43.70;;;;;;4978442;28;20465;-65
2021/04/09 10:03:34;;;;;;;7.17;6.57;;;17.40;43.70;;;;;;4979574;28;21351;-65
2021/04/09 10:06:08;;;;;;;6.63;6.13;;;17.30;43.90;;;;;;4978606;28;20454;-65
2021/04/09 10:08:36;;;;;;;8.60;6.53;;;17.20;43.30;;;;;;4983717;28;21911;-64
2021/04/09 10:11:08;;;;;;;5.63;5.13;;;16.90;43.10;;;;;;4981013;28;20507;-64
2021/04/09 10:13:34;;;;;;;6.60;6.10;;;16.60;43.30;;;;;;4978620;28;20504;-65
2021/04/09 10:16:05;;;;;;;6.90;6.30;;;16.60;43.80;;;;;;4979487;28;20469;-65
2021/04/09 10:18:31;;;;;;;6.60;5.83;;;16.80;43.70;;;;;;4978685;28;20300;-64
2021/04/09 10:21:18;;;;;;;8.07;5.60;;;17.00;43.10;;;;;;4980607;28;21399;-65
2021/04/09 10:23:46;;;;;;;7.07;6.37;;;17.30;42.80;;;;;;4982842;28;20479;-65
2021/04/09 10:26:13;;;;;;;5.40;5.10;;;17.50;43.20;;;;;;4979958;28;20443;-66
2021/04/09 10:28:42;;;;;;;7.97;5.30;;;17.60;42.20;;;;;;4976234;28;20429;-72
2021/04/09 10:31:19;;;;;;;6.60;6.03;;;17.70;41.80;;;;;;4979416;28;20464;-71
2021/04/09 10:33:47;;;;;;;6.40;5.80;;;18.00;41.90;;;;;;4976971;28;20502;-73
2021/04/09 10:36:33;;;;;;;6.07;5.40;;;18.80;41.60;;;;;;4976402;28;21024;-72
2021/04/09 10:39:01;;;;;;;6.50;5.47;;;19.10;41.50;;;;;;4975728;28;20522;-73
2021/04/09 10:41:38;;;;;;;6.23;5.60;;;19.60;41.10;;;;;;4977134;28;20452;-73
2021/04/09 10:44:03;;;;;;;5.80;5.30;;;19.60;41.20;;;;;;4976717;28;20577;-74
2021/04/09 10:46:39;;;;;;;6.90;5.43;;;19.30;41.70;;;;;;4980198;28;20426;-73
2021/04/09 10:49:10;;;;;;;9.77;6.70;;;19.10;41.60;;;;;;4984436;28;20190;-71
2021/04/09 10:51:39;;;;;;;6.47;5.90;;;18.90;41.30;;;;;;4980764;28;20464;-73
2021/04/09 10:54:10;;;;;;;5.13;4.77;;;18.40;41.30;;;;;;4975589;28;20445;-72
2021/04/09 10:56:36;;;;;;;6.00;5.40;;;18.20;41.60;;;;;;4979761;28;20520;-73
2021/04/09 10:59:07;;;;;;;5.40;4.87;;;18.10;41.50;;;;;;4977458;28;20473;-73
2021/04/09 11:01:33;;;;;;;5.73;5.20;;;18.40;41.40;;;;;;4979662;28;20484;-74
2021/04/09 11:04:00;;;;;;;5.23;4.73;;;19.20;41.00;;;;;;4980677;28;20445;-74
2021/04/09 11:06:29;;;;;;;5.03;4.63;;;20.30;40.60;;;;;;4980578;28;20448;-73
2021/04/09 11:09:06;;;;;;;5.20;4.80;;;21.50;39.60;;;;;;4979288;28;20482;-72
2021/04/09 11:11:39;;;;;;;5.30;4.90;;;21.60;38.50;;;;;;4979249;28;20464;-75
2021/04/09 11:14:12;;;;;;;5.40;4.90;;;22.20;39.10;;;;;;4981205;28;20441;-74
2021/04/09 11:16:52;;;;;;;5.73;5.27;;;22.40;36.90;;;;;;4975593;28;20505;-74
2021/04/09 11:19:36;;;;;;;6.50;6.00;;;22.00;37.10;;;;;;4981436;28;20475;-74
2021/04/09 11:22:04;;;;;;;6.67;6.00;;;21.20;37.50;;;;;;4984124;28;20576;-75
2021/04/09 11:24:33;;;;;;;7.20;6.60;;;21.10;37.10;;;;;;4977412;28;20448;-74
2021/04/09 11:27:02;;;;;;;6.33;5.73;;;20.90;37.40;;;;;;4983148;28;20432;-74
2021/04/09 11:29:30;;;;;;;8.63;5.80;;;21.20;37.50;;;;;;4978971;28;20445;-75
2021/04/09 11:32:09;;;;;;;6.23;5.73;;;21.70;37.70;;;;;;4976854;28;20465;-75
2021/04/09 11:34:41;;;;;;;5.80;5.17;;;21.50;37.00;;;;;;4974652;28;20457;-75
2021/04/09 11:37:08;;;;;;;6.40;5.90;;;20.90;36.80;;;;;;4978695;28;20449;-75
2021/04/09 11:39:33;;;;;;;5.73;5.23;;;20.50;37.60;;;;;;4978877;28;20890;-73
2021/04/09 11:42:02;;;;;;;6.03;5.10;;;21.00;38.00;;;;;;4979042;28;20449;-73
2021/04/09 11:44:34;;;;;;;6.10;5.53;;;21.30;37.60;;;;;;4976338;28;20560;-73
2021/04/09 11:47:23;;;;;;;5.80;5.17;;;21.70;37.30;;;;;;4979051;28;20437;-73
2021/04/09 11:50:04;;;;;;;6.37;5.70;;;23.20;36.90;;;;;;4974524;28;21150;-74
2021/04/09 11:52:30;;;;;;;6.00;5.50;;;24.40;35.80;;;;;;4978503;28;20474;-74
2021/04/09 11:54:56;;;;;;;6.33;5.87;;;24.60;34.70;;;;;;4974880;28;20444;-73
2021/04/09 11:57:30;;;;;;;6.63;5.37;;;24.60;34.60;;;;;;4975297;28;20287;-72
2021/04/09 11:59:55;;;;;;;6.43;5.93;;;23.60;33.90;;;;;;4977508;28;20212;-75
2021/04/09 12:02:26;;;;;;;8.60;5.70;;;23.40;34.90;;;;;;4976181;28;20461;-73
2021/04/09 12:04:53;;;;;;;5.70;5.17;;;23.50;35.30;;;;;;4978819;28;20186;-73
2021/04/09 12:07:18;;;;;;;6.60;6.00;;;23.60;35.20;;;;;;4980352;28;20452;-74
2021/04/09 12:09:48;;;;;;;6.20;5.53;;;23.10;35.20;;;;;;4973027;28;21366;-73
2021/04/09 12:12:15;;;;;;;8.43;5.87;;;23.20;35.40;;;;;;4981394;28;20747;-73
2021/04/09 12:14:42;;;;;;;8.17;6.20;;;23.30;35.20;;;;;;4978247;28;20440;-73
2021/04/09 12:17:09;;;;;;;6.50;6.00;;;23.60;35.40;;;;;;4979676;28;20550;-74
2021/04/09 12:19:36;;;;;;;6.13;5.73;;;23.80;35.00;;;;;;4983406;28;20496;-76
2021/04/09 12:22:02;;;;;;;7.30;6.07;;;24.20;35.40;;;;;;4982692;28;20493;-74
2021/04/09 12:24:28;;;;;;;6.43;5.83;;;24.10;34.80;;;;;;4983710;28;20427;-71
2021/04/09 12:26:54;;;;;;;6.70;6.00;;;23.50;34.80;;;;;;4980332;28;21826;-73
2021/04/09 12:29:20;;;;;;;6.53;6.03;;;24.00;35.20;;;;;;4986048;28;20443;-72
2021/04/09 12:31:46;;;;;;;5.60;5.30;;;24.80;35.20;;;;;;4983287;28;20221;-73
2021/04/09 12:34:13;;;;;;;5.50;5.10;;;25.00;33.80;;;;;;4981844;28;20466;-74
2021/04/09 12:36:39;;;;;;;6.37;5.77;;;24.50;33.70;;;;;;4982197;28;20892;-73
2021/04/09 12:39:09;;;;;;;6.50;6.00;;;24.00;33.40;;;;;;4982857;28;20487;-72
2021/04/09 12:41:35;;;;;;;18.43;15.67;;;22.80;33.70;;;;;;4982593;28;20979;-74
2021/04/09 12:44:02;;;;;;;6.40;5.80;;;22.20;34.90;;;;;;4976095;28;20848;-74
2021/04/09 12:46:28;;;;;;;5.30;4.80;;;22.30;35.60;;;;;;4976109;28;20436;-74
2021/04/09 12:48:54;;;;;;;6.27;5.67;;;22.20;35.50;;;;;;4982407;28;20455;-73
2021/04/09 12:51:23;;;;;;;5.93;5.40;;;22.40;35.80;;;;;;4982673;28;20491;-73
2021/04/09 12:53:49;;;;;;;5.83;5.33;;;22.70;35.70;;;;;;4982749;28;20451;-74
2021/04/09 12:56:16;;;;;;;6.83;5.00;;;23.00;35.10;;;;;;4971992;28;20526;-71
2021/04/09 12:58:42;;;;;;;5.33;4.80;;;24.10;35.70;;;;;;4985311;28;20285;-74
2021/04/09 13:01:09;;;;;;;8.37;5.50;;;23.90;34.10;;;;;;4980905;28;21703;-74
2021/04/09 13:03:34;;;;;;;5.83;5.43;;;23.50;34.70;;;;;;4980908;28;21032;-73